createdAt,value
2023-04-04T00:01:08.624Z,50.25
2023-04-04T00:03:36.904Z,49.98
2023-04-04T00:06:04.823Z,50.50
2023-04-04T00:08:33.806Z,50.43
2023-04-04T00:11:02.304Z,50.05
2023-04-04T00:13:30.057Z,50.33
2023-04-04T00:15:58.871Z,50.71
2023-04-04T00:18:26.635Z,50.62
2023-04-04T00:20:54.280Z,50.57
2023-04-04T00:23:21.861Z,51.02
2023-04-04T00:25:54.315Z,51.03
2023-04-04T00:28:23.080Z,51.56
2023-04-04T00:30:50.667Z,52.12
2023-04-04T00:33:18.488Z,52.25
2023-04-04T00:35:46.164Z,52.48
2023-04-04T00:38:13.867Z,52.06
2023-04-04T00:40:43.605Z,52.34
2023-04-04T00:43:12.611Z,52.35
2023-04-04T00:45:40.421Z,52.34
2023-04-04T00:48:08.367Z,52.51
2023-04-04T00:50:36.197Z,52.67
2023-04-04T00:53:03.874Z,53.04
2023-04-04T00:55:33.483Z,53.63
2023-04-04T00:58:01.568Z,53.86
2023-04-04T01:00:30.750Z,54.26
2023-04-04T01:02:58.489Z,54.54
2023-04-04T01:05:26.471Z,54.26
2023-04-04T01:07:54.130Z,54.19
2023-04-04T01:10:22.082Z,55.27
2023-04-04T01:12:49.995Z,55.20
2023-04-04T01:15:17.844Z,56.36
2023-04-04T01:17:47.129Z,55.96
2023-04-04T01:20:17.124Z,56.52
2023-04-04T01:22:48.141Z,57.10
2023-04-04T01:25:16.236Z,56.94
2023-04-04T01:27:45.627Z,57.58
2023-04-04T01:30:15.069Z,57.87
2023-04-04T01:32:46.477Z,58.05
2023-04-04T01:35:23.493Z,58.16
2023-04-04T01:37:59.510Z,58.51
2023-04-04T01:40:34.990Z,58.46
2023-04-04T01:43:07.332Z,58.42
2023-04-04T01:45:35.790Z,58.46
2023-04-04T01:48:03.425Z,59.55
2023-04-04T01:50:32.263Z,60.01
2023-04-04T01:52:59.952Z,59.46
2023-04-04T01:55:27.881Z,60.58
2023-04-04T01:57:55.466Z,60.66
2023-04-04T02:00:24.790Z,60.82
2023-04-04T02:02:52.453Z,61.28
2023-04-04T02:05:20.140Z,61.18
2023-04-04T02:07:51.355Z,60.63
2023-04-04T02:10:19.049Z,60.94
2023-04-04T02:12:47.267Z,61.41
2023-04-04T02:15:15.032Z,61.29
2023-04-04T02:17:48.247Z,61.31
2023-04-04T02:20:16.034Z,61.07
2023-04-04T02:22:43.685Z,60.72
2023-04-04T02:25:11.241Z,60.64
2023-04-04T02:27:38.953Z,61.07
2023-04-04T02:30:07.998Z,61.33
2023-04-04T02:32:36.202Z,61.25
2023-04-04T02:35:08.258Z,61.27
2023-04-04T02:37:37.991Z,60.86
2023-04-04T02:40:06.683Z,61.49
2023-04-04T02:42:34.331Z,61.70
2023-04-04T02:45:01.939Z,61.35
2023-04-04T02:47:29.974Z,61.49
2023-04-04T02:49:57.590Z,61.41
2023-04-04T02:52:26.583Z,62.57
2023-04-04T02:54:55.286Z,62.94
2023-04-04T02:57:22.937Z,62.72
2023-04-04T02:59:50.550Z,63.52
2023-04-04T03:02:18.297Z,63.81
2023-04-04T03:04:46.307Z,63.91
2023-04-04T03:07:14.248Z,64.50
2023-04-04T03:09:45.154Z,64.96
2023-04-04T03:12:13.000Z,65.11
2023-04-04T03:14:40.772Z,65.51
2023-04-04T03:17:09.487Z,65.57
2023-04-04T03:19:37.409Z,65.42
2023-04-04T03:22:05.108Z,65.83
2023-04-04T03:24:32.691Z,66.29
2023-04-04T03:27:02.016Z,66.21
2023-04-04T03:29:29.574Z,65.85
2023-04-04T03:31:57.196Z,65.67
2023-04-04T03:34:27.226Z,65.78
2023-04-04T03:36:54.949Z,66.39
2023-04-04T03:39:22.615Z,66.66
2023-04-04T03:41:50.335Z,67.45
2023-04-04T03:44:19.360Z,67.35
2023-04-04T03:46:47.340Z,67.83
2023-04-04T03:49:15.036Z,67.50
2023-04-04T03:51:42.859Z,67.71
2023-04-04T03:54:10.645Z,66.97
2023-04-04T03:56:38.702Z,67.84
2023-04-04T03:59:06.381Z,67.40
2023-04-04T04:01:35.735Z,66.75
2023-04-04T04:04:03.492Z,66.46
2023-04-04T04:06:31.880Z,66.08
2023-04-04T04:08:59.598Z,65.88
2023-04-04T04:11:27.216Z,65.91
2023-04-04T04:13:54.989Z,66.11
2023-04-04T04:16:22.819Z,66.22
2023-04-04T04:18:51.872Z,65.49
2023-04-04T04:21:19.739Z,65.69
2023-04-04T04:23:47.539Z,66.66
2023-04-04T04:26:15.351Z,67.51
2023-04-04T04:28:43.209Z,67.46
2023-04-04T04:31:11.576Z,66.58
2023-04-04T04:33:39.199Z,66.13
2023-04-04T04:36:08.853Z,66.43
2023-04-04T04:38:41.440Z,66.19
2023-04-04T04:41:12.689Z,66.77
2023-04-04T04:43:45.223Z,67.11
2023-04-04T04:46:14.743Z,67.36
2023-04-04T04:48:42.534Z,67.59
2023-04-04T04:51:11.886Z,67.78
2023-04-04T04:53:39.515Z,68.07
2023-04-04T04:56:08.340Z,68.36
2023-04-04T04:58:36.011Z,69.00
2023-04-04T05:01:04.542Z,69.13
2023-04-04T05:03:35.119Z,69.30
2023-04-04T05:06:02.769Z,68.97
2023-04-04T05:08:31.721Z,69.23
2023-04-04T05:10:59.314Z,69.56
2023-04-04T05:13:26.966Z,69.50
2023-04-04T05:15:54.644Z,69.57
2023-04-04T05:18:22.625Z,69.89
2023-04-04T05:20:53.849Z,70.29
2023-04-04T05:23:21.668Z,70.65
2023-04-04T05:25:53.197Z,71.03
2023-04-04T05:28:21.420Z,72.01
2023-04-04T05:30:49.137Z,72.75
2023-04-04T05:33:16.799Z,72.60
2023-04-04T05:35:44.497Z,72.77
2023-04-04T05:38:12.638Z,72.86
2023-04-04T05:40:40.662Z,72.66
2023-04-04T05:43:09.752Z,73.41
2023-04-04T05:45:38.420Z,72.48
2023-04-04T05:48:08.202Z,72.60
2023-04-04T05:50:35.852Z,72.55
2023-04-04T05:53:04.698Z,73.04
2023-04-04T05:55:32.642Z,72.65
2023-04-04T05:58:00.319Z,73.04
2023-04-04T06:00:29.548Z,72.05
2023-04-04T06:02:58.517Z,72.20
2023-04-04T06:05:26.350Z,71.88
2023-04-04T06:07:53.969Z,72.57
2023-04-04T06:10:21.730Z,71.52
2023-04-04T06:12:49.495Z,72.58
2023-04-04T06:15:17.298Z,73.39
2023-04-04T06:17:46.363Z,73.95
2023-04-04T06:20:14.056Z,73.55
2023-04-04T06:22:41.759Z,74.51
2023-04-04T06:25:10.988Z,74.56
2023-04-04T06:27:39.557Z,75.09
2023-04-04T06:30:11.033Z,74.30
2023-04-04T06:33:03.782Z,74.54
2023-04-04T06:35:36.118Z,74.75
2023-04-04T06:38:04.266Z,75.35
2023-04-04T06:40:32.110Z,74.53
2023-04-04T06:42:59.826Z,74.31
2023-04-04T06:45:28.623Z,75.73
2023-04-04T06:47:57.677Z,75.46
2023-04-04T06:50:25.576Z,75.46
2023-04-04T06:52:53.556Z,74.26
2023-04-04T06:55:21.259Z,73.70
2023-04-04T06:57:49.058Z,73.03
2023-04-04T07:00:17.359Z,72.25
2023-04-04T07:02:45.018Z,71.84
2023-04-04T07:05:17.887Z,72.12
2023-04-04T07:07:46.248Z,72.20
2023-04-04T07:10:14.043Z,71.79
2023-04-04T07:12:41.662Z,70.95
2023-04-04T07:15:10.629Z,70.82
2023-04-04T07:17:38.929Z,70.58
2023-04-04T07:20:08.072Z,72.01
2023-04-04T07:22:40.320Z,71.23
2023-04-04T07:25:09.470Z,69.79
2023-04-04T07:27:37.492Z,70.64
2023-04-04T07:30:05.950Z,68.93
2023-04-04T07:32:34.050Z,67.64
2023-04-04T07:35:02.057Z,66.98
2023-04-04T07:37:29.707Z,65.35
2023-04-04T07:39:58.886Z,63.92
2023-04-04T07:42:26.600Z,63.94
2023-04-04T07:44:54.301Z,63.25
2023-04-04T07:47:22.396Z,62.85
2023-04-04T07:49:50.035Z,61.31
2023-04-04T07:52:17.725Z,60.11
2023-04-04T07:54:45.319Z,60.27
2023-04-04T07:57:14.445Z,58.24
2023-04-04T07:59:42.058Z,58.69
2023-04-04T08:02:09.658Z,58.66
2023-04-04T08:04:37.354Z,57.26
2023-04-04T08:07:05.092Z,56.69
2023-04-04T08:09:35.579Z,56.36
2023-04-04T08:12:03.312Z,54.76
2023-04-04T08:14:32.945Z,53.44
2023-04-04T08:17:01.339Z,52.85
2023-04-04T08:19:28.988Z,50.92
2023-04-04T08:21:56.801Z,52.84
2023-04-04T08:24:25.543Z,52.48
2023-04-04T08:27:04.686Z,52.20
2023-04-04T08:29:35.496Z,51.32
2023-04-04T08:32:03.182Z,49.08
2023-04-04T08:34:30.992Z,47.88
2023-04-04T08:36:59.824Z,48.40
2023-04-04T08:39:28.068Z,48.38
2023-04-04T08:42:02.498Z,48.76
2023-04-04T08:44:31.578Z,48.35
2023-04-04T08:47:03.348Z,48.09
2023-04-04T08:49:32.866Z,49.38
2023-04-04T08:52:03.440Z,49.50
2023-04-04T08:54:32.920Z,48.22
2023-04-04T08:57:01.658Z,48.05
2023-04-04T08:59:29.475Z,48.41
2023-04-04T09:02:01.669Z,47.41
2023-04-04T09:04:32.173Z,46.90
2023-04-04T09:07:02.385Z,47.16
2023-04-04T09:09:31.794Z,46.31
2023-04-04T09:12:01.448Z,45.18
2023-04-04T09:14:31.828Z,45.44
2023-04-04T09:16:59.645Z,44.67
2023-04-04T09:19:27.594Z,45.33
2023-04-04T09:21:56.789Z,45.17
2023-04-04T09:24:24.386Z,44.61
2023-04-04T09:26:53.795Z,45.10
2023-04-04T09:29:22.118Z,45.40
2023-04-04T09:31:49.849Z,44.32
2023-04-04T09:34:20.118Z,43.30
2023-04-04T09:36:48.134Z,43.15
2023-04-04T09:39:17.547Z,42.44
2023-04-04T09:41:46.362Z,42.95
2023-04-04T09:44:14.937Z,42.76
2023-04-04T09:46:42.905Z,43.08
2023-04-04T09:49:13.442Z,41.76
2023-04-04T09:51:42.452Z,42.49
2023-04-04T09:54:18.571Z,42.38
2023-04-04T09:56:55.523Z,41.50
2023-04-04T09:59:25.198Z,41.85
2023-04-04T10:01:55.569Z,43.11
2023-04-04T10:04:26.912Z,43.16
2023-04-04T10:06:55.929Z,43.21
2023-04-04T10:09:26.424Z,43.48
2023-04-04T10:12:09.393Z,43.59
2023-04-04T10:14:38.464Z,44.08
2023-04-04T10:17:10.469Z,43.56
2023-04-04T10:19:39.236Z,42.03
2023-04-04T10:22:07.339Z,42.96
2023-04-04T10:24:35.171Z,41.85
2023-04-04T10:27:04.415Z,41.98
2023-04-04T10:29:32.477Z,41.73
2023-04-04T10:32:06.028Z,40.51
2023-04-04T10:34:45.958Z,39.99
2023-04-04T10:37:16.591Z,40.27
2023-04-04T10:39:52.157Z,41.98
2023-04-04T10:42:21.608Z,41.40
2023-04-04T10:44:49.303Z,41.25
2023-04-04T10:47:19.666Z,42.38
2023-04-04T10:49:48.612Z,41.99
2023-04-04T10:52:18.527Z,41.75
2023-04-04T10:54:50.445Z,41.63
2023-04-04T10:57:18.489Z,40.34
2023-04-04T11:00:04.858Z,41.79
2023-04-04T11:02:58.157Z,41.05
2023-04-04T11:05:27.830Z,40.84
2023-04-04T11:10:31.865Z,40.97
2023-04-04T11:13:12.635Z,39.10
2023-04-04T11:15:56.656Z,39.56
2023-04-04T11:18:46.988Z,39.31
2023-04-04T11:21:19.366Z,39.92
2023-04-04T11:24:15.872Z,39.38
2023-04-04T11:26:45.513Z,39.46
2023-04-04T11:29:24.096Z,40.33
2023-04-04T11:31:55.311Z,40.24
2023-04-04T11:34:33.163Z,40.32
2023-04-04T11:37:16.424Z,38.35
2023-04-04T11:39:50.617Z,38.47
2023-04-04T11:42:21.721Z,37.56
2023-04-04T11:45:03.467Z,37.76
2023-04-04T11:47:32.526Z,37.69
2023-04-04T11:50:02.517Z,37.63
2023-04-04T11:52:35.002Z,36.77
2023-04-04T11:55:02.791Z,37.35
2023-04-04T11:57:30.422Z,37.41
2023-04-04T11:59:58.717Z,37.10
2023-04-04T12:02:31.718Z,36.76
2023-04-04T12:05:01.672Z,37.03
2023-04-04T12:07:30.272Z,36.31
2023-04-04T12:09:58.655Z,36.84
2023-04-04T12:12:27.579Z,36.29
2023-04-04T12:15:06.256Z,36.93
2023-04-04T12:17:44.406Z,36.69
2023-04-04T12:20:17.236Z,36.51
2023-04-04T12:22:46.518Z,36.44
2023-04-04T12:25:14.149Z,36.09
2023-04-04T12:27:42.595Z,35.89
2023-04-04T12:30:15.684Z,35.20
2023-04-04T12:32:44.894Z,34.54
2023-04-04T12:35:15.204Z,34.02
2023-04-04T12:37:58.184Z,34.83
2023-04-04T12:40:29.783Z,35.02
2023-04-04T12:42:58.014Z,35.81
2023-04-04T12:45:27.170Z,34.83
2023-04-04T12:47:55.325Z,34.38
2023-04-04T12:50:27.227Z,34.58
2023-04-04T12:53:00.289Z,34.54
2023-04-04T12:55:36.380Z,34.27
2023-04-04T12:58:05.215Z,33.42
2023-04-04T13:00:34.800Z,34.05
2023-04-04T13:03:02.492Z,31.43
2023-04-04T13:05:35.704Z,31.58
2023-04-04T13:08:07.632Z,32.75
2023-04-04T13:10:56.625Z,32.49
2023-04-04T13:13:35.317Z,31.95
2023-04-04T13:16:06.780Z,31.96
2023-04-04T13:18:38.185Z,32.57
2023-04-04T13:21:08.487Z,32.41
2023-04-04T13:23:39.332Z,32.70
2023-04-04T13:26:08.074Z,32.95
2023-04-04T13:28:36.706Z,32.82
2023-04-04T13:31:04.884Z,32.95
2023-04-04T13:33:32.721Z,33.27
2023-04-04T13:36:01.369Z,33.86
2023-04-04T13:38:30.510Z,33.68
2023-04-04T13:40:59.486Z,33.79
2023-04-04T13:43:28.178Z,33.22
2023-04-04T13:45:56.346Z,32.71
2023-04-04T13:48:24.178Z,33.02
2023-04-04T13:50:53.115Z,32.91
2023-04-04T13:53:21.357Z,33.34
2023-04-04T13:56:13.818Z,33.47
2023-04-04T13:58:38.829Z,34.09
2023-04-04T14:01:07.118Z,34.21
2023-04-04T14:03:35.180Z,34.30
2023-04-04T14:06:09.904Z,34.26
2023-04-04T14:08:38.864Z,34.17
2023-04-04T14:11:07.939Z,34.39
2023-04-04T14:13:36.198Z,34.65
2023-04-04T14:16:04.251Z,34.70
2023-04-04T14:18:31.990Z,34.46
2023-04-04T14:20:59.688Z,33.63
2023-04-04T14:23:27.528Z,34.32
2023-04-04T14:25:55.457Z,35.13
2023-04-04T14:28:24.544Z,34.99
2023-04-04T14:30:52.559Z,34.76
2023-04-04T14:33:22.758Z,35.05
2023-04-04T14:35:50.912Z,33.90
2023-04-04T14:38:18.649Z,33.85
2023-04-04T14:40:46.254Z,33.83
2023-04-04T14:43:14.276Z,33.93
2023-04-04T14:45:43.415Z,34.13
2023-04-04T14:48:11.450Z,34.66
2023-04-04T14:50:40.216Z,34.76
2023-04-04T14:53:09.645Z,35.51
2023-04-04T14:55:37.399Z,35.00
2023-04-04T14:58:05.245Z,34.96
2023-04-04T15:00:33.871Z,35.45
2023-04-04T15:03:04.931Z,36.14
2023-04-04T15:05:34.621Z,36.22
2023-04-04T15:08:02.226Z,36.41
2023-04-04T15:10:29.936Z,36.14
2023-04-04T15:12:57.633Z,35.57
2023-04-04T15:15:28.801Z,35.77
2023-04-04T15:17:56.587Z,35.75
2023-04-04T15:20:25.683Z,35.21
2023-04-04T15:22:53.415Z,35.41
2023-04-04T15:25:21.190Z,36.65
2023-04-04T15:27:48.986Z,35.95
2023-04-04T15:30:16.935Z,36.17
2023-04-04T15:32:45.116Z,35.91
2023-04-04T15:35:17.512Z,35.79
2023-04-04T15:37:46.794Z,35.54
2023-04-04T15:40:14.464Z,35.76
2023-04-04T15:42:42.326Z,35.31
2023-04-04T15:45:11.008Z,35.69
2023-04-04T15:47:38.870Z,36.23
2023-04-04T15:50:08.166Z,36.14
2023-04-04T15:52:36.001Z,36.12
2023-04-04T15:55:07.498Z,36.13
2023-04-04T15:57:35.283Z,35.64
2023-04-04T16:00:03.583Z,35.93
2023-04-04T16:02:31.846Z,36.24
2023-04-04T16:04:59.587Z,36.63
2023-04-04T16:07:27.491Z,36.66
2023-04-04T16:09:55.353Z,35.84
2023-04-04T16:12:24.592Z,36.28
2023-04-04T16:14:52.246Z,36.21
2023-04-04T16:17:19.898Z,36.39
2023-04-04T16:19:47.800Z,36.18
2023-04-04T16:22:15.447Z,36.35
2023-04-04T16:24:43.152Z,36.33
2023-04-04T16:27:11.825Z,36.23
2023-04-04T16:29:40.927Z,36.63
2023-04-04T16:32:08.602Z,36.45
2023-04-04T16:34:38.822Z,37.14
2023-04-04T16:37:06.616Z,36.83
2023-04-04T16:39:34.264Z,37.75
2023-04-04T16:42:02.314Z,36.87
2023-04-04T16:44:30.307Z,36.67
2023-04-04T16:46:59.483Z,37.03
2023-04-04T16:49:27.159Z,36.58
2023-04-04T16:51:54.875Z,36.65
2023-04-04T16:54:22.576Z,36.70
2023-04-04T16:56:50.284Z,36.09
2023-04-04T16:59:18.337Z,36.70
2023-04-04T17:01:48.868Z,36.09
2023-04-04T17:04:18.049Z,36.32
2023-04-04T17:06:45.801Z,36.14
2023-04-04T17:09:13.509Z,37.11
2023-04-04T17:11:44.616Z,37.67
2023-04-04T17:14:12.770Z,36.96
2023-04-04T17:16:40.626Z,36.42
2023-04-04T17:19:08.334Z,36.78
2023-04-04T17:21:37.497Z,37.08
2023-04-04T17:24:05.283Z,36.50
2023-04-04T17:26:33.265Z,36.62
2023-04-04T17:29:00.987Z,36.97
2023-04-04T17:31:28.689Z,37.77
2023-04-04T17:33:56.325Z,37.15
2023-04-04T17:36:24.027Z,36.96
2023-04-04T17:38:53.040Z,38.44
2023-04-04T17:41:20.829Z,37.93
2023-04-04T17:43:48.514Z,38.01
2023-04-04T17:46:16.814Z,38.46
2023-04-04T17:48:44.819Z,38.33
2023-04-04T17:51:13.096Z,38.58
2023-04-04T17:53:40.675Z,37.80
2023-04-04T17:56:09.672Z,38.29
2023-04-04T17:58:37.376Z,38.56
2023-04-04T18:01:05.492Z,38.33
2023-04-04T18:03:33.311Z,38.75
2023-04-04T18:06:01.435Z,39.09
2023-04-04T18:08:29.192Z,39.66
2023-04-04T18:10:58.442Z,39.60
2023-04-04T18:13:27.853Z,39.81
2023-04-04T18:15:56.399Z,39.13
2023-04-04T18:18:39.411Z,39.25
2023-04-04T18:21:08.324Z,39.32
2023-04-04T18:23:36.480Z,39.42
2023-04-04T18:26:04.378Z,39.77
2023-04-04T18:28:35.884Z,39.98
2023-04-04T18:31:03.702Z,40.75
2023-04-04T18:33:31.686Z,40.60
2023-04-04T18:36:00.166Z,40.50
2023-04-04T18:38:28.040Z,39.88
2023-04-04T18:40:56.570Z,40.07
2023-04-04T18:43:26.024Z,40.12
2023-04-04T18:45:55.586Z,40.16
2023-04-04T18:48:25.223Z,39.82
2023-04-04T18:50:53.166Z,40.54
2023-04-04T18:53:21.480Z,40.57
2023-04-04T18:55:49.847Z,40.62
2023-04-04T18:58:17.709Z,40.64
2023-04-04T19:00:45.397Z,40.07
2023-04-04T19:03:15.187Z,40.29
2023-04-04T19:05:48.081Z,40.52
2023-04-04T19:08:17.367Z,40.95
2023-04-04T19:10:47.286Z,40.23
2023-04-04T19:13:15.899Z,41.57
2023-04-04T19:15:44.808Z,41.03
2023-04-04T19:18:14.286Z,40.37
2023-04-04T19:20:43.655Z,40.69
2023-04-04T19:23:11.488Z,41.35
2023-04-04T19:25:39.472Z,40.68
2023-04-04T19:28:07.566Z,41.09
2023-04-04T19:30:42.921Z,41.33
2023-04-04T19:33:12.197Z,41.55
2023-04-04T19:35:51.790Z,41.13
2023-04-04T19:38:22.964Z,41.44
2023-04-04T19:40:57.428Z,41.54
2023-04-04T19:43:25.438Z,41.08
2023-04-04T19:45:55.027Z,41.74
2023-04-04T19:48:48.614Z,41.33
2023-04-04T19:51:38.708Z,41.74
2023-04-04T19:54:08.204Z,41.77
2023-04-04T19:56:36.110Z,41.35
2023-04-04T19:59:08.129Z,41.01
2023-04-04T20:01:42.548Z,40.81
2023-04-04T20:04:15.018Z,41.17
2023-04-04T20:06:44.323Z,41.35
2023-04-04T20:09:25.723Z,40.97
2023-04-04T20:11:56.063Z,41.67
2023-04-04T20:14:25.454Z,41.66
2023-04-04T20:16:54.036Z,41.84
2023-04-04T20:19:27.121Z,41.29
2023-04-04T20:21:56.385Z,42.11
2023-04-04T20:24:24.850Z,41.84
2023-04-04T20:26:59.084Z,41.90
2023-04-04T20:29:29.505Z,42.16
2023-04-04T20:31:59.148Z,42.16
2023-04-04T20:34:33.278Z,42.32
2023-04-04T20:37:05.842Z,41.99
2023-04-04T20:39:41.095Z,42.36
2023-04-04T20:42:21.435Z,41.96
2023-04-04T20:44:49.093Z,42.48
2023-04-04T20:47:31.477Z,42.48
2023-04-04T20:49:59.632Z,42.70
2023-04-04T20:52:28.670Z,43.07
2023-04-04T20:54:56.826Z,42.91
2023-04-04T20:57:25.650Z,43.46
2023-04-04T20:59:53.244Z,42.80
2023-04-04T21:02:21.244Z,43.74
2023-04-04T21:04:51.727Z,43.66
2023-04-04T21:07:51.158Z,43.59
2023-04-04T21:10:23.455Z,43.27
2023-04-04T21:12:51.389Z,44.59
2023-04-04T21:15:23.345Z,44.42
2023-04-04T21:17:51.342Z,44.47
2023-04-04T21:21:01.241Z,44.90
2023-04-04T21:23:34.052Z,45.49
2023-04-04T21:26:04.305Z,45.10
2023-04-04T21:28:35.445Z,46.04
2023-04-04T21:31:11.980Z,45.66
2023-04-04T21:33:40.723Z,46.15
2023-04-04T21:36:12.579Z,46.63
2023-04-04T21:38:41.788Z,46.62
2023-04-04T21:41:24.024Z,46.74
2023-04-04T21:43:51.699Z,46.90
2023-04-04T21:46:19.401Z,46.38
2023-04-04T21:48:48.044Z,47.24
2023-04-04T21:51:15.739Z,47.10
2023-04-04T21:53:45.558Z,47.59
2023-04-04T21:56:13.685Z,47.33
2023-04-04T21:58:41.890Z,47.31
2023-04-04T22:01:09.931Z,47.56
2023-04-04T22:03:39.172Z,47.85
2023-04-04T22:06:07.894Z,47.99
2023-04-04T22:08:35.644Z,47.60
2023-04-04T22:11:05.824Z,48.52
2023-04-04T22:13:33.999Z,48.36
2023-04-04T22:16:04.441Z,48.86
2023-04-04T22:18:32.984Z,48.47
2023-04-04T22:21:03.223Z,48.22
2023-04-04T22:23:36.036Z,47.79
2023-04-04T22:26:06.075Z,48.33
2023-04-04T22:28:34.160Z,48.60
2023-04-04T22:31:02.304Z,47.76
2023-04-04T22:33:31.302Z,48.23
2023-04-04T22:35:59.016Z,48.27
2023-04-04T22:38:28.311Z,48.32
2023-04-04T22:40:57.376Z,48.85
2023-04-04T22:43:26.557Z,48.77
2023-04-04T22:45:54.320Z,49.07
2023-04-04T22:48:23.664Z,49.21
2023-04-04T22:50:55.495Z,49.68
2023-04-04T22:53:24.876Z,49.66
2023-04-04T22:55:53.882Z,49.92
2023-04-04T22:58:22.312Z,50.25
2023-04-04T23:00:51.196Z,50.34
2023-04-04T23:03:18.973Z,50.49
2023-04-04T23:05:46.714Z,50.89
2023-04-04T23:08:14.381Z,50.38
2023-04-04T23:10:42.251Z,50.30
2023-04-04T23:13:10.038Z,50.81
2023-04-04T23:15:37.842Z,51.29
2023-04-04T23:18:08.152Z,51.58
2023-04-04T23:20:37.224Z,51.74
2023-04-04T23:23:04.902Z,51.80
2023-04-04T23:25:32.577Z,52.51
2023-04-04T23:28:00.323Z,52.18
2023-04-04T23:30:28.559Z,52.69
2023-04-04T23:32:56.517Z,52.51
2023-04-04T23:35:25.522Z,52.75
2023-04-04T23:37:53.194Z,53.34
2023-04-04T23:40:20.850Z,52.79
2023-04-04T23:42:48.512Z,53.30
2023-04-04T23:45:16.222Z,53.30
2023-04-04T23:47:43.961Z,53.27
2023-04-04T23:50:11.976Z,52.97
2023-04-04T23:52:41.211Z,53.63
2023-04-04T23:55:09.631Z,54.46
2023-04-04T23:57:37.327Z,53.80
